sensor_id;sensor_type;location;lat;lon;timestamp;P1;durP1;ratioP1;P2;durP2;ratioP2
34373;SDS011;20637;55.770;37.592;2024-01-30T00:01:13;8.52;;;5.72;;
34373;SDS011;20637;55.770;37.592;2024-01-30T00:03:38;8.82;;;6.55;;
34373;SDS011;20637;55.770;37.592;2024-01-30T00:06:04;9.82;;;6.40;;
34373;SDS011;20637;55.770;37.592;2024-01-30T00:08:30;7.90;;;5.90;;
34373;SDS011;20637;55.770;37.592;2024-01-30T00:10:56;10.15;;;6.70;;
34373;SDS011;20637;55.770;37.592;2024-01-30T00:13:21;10.25;;;6.32;;
34373;SDS011;20637;55.770;37.592;2024-01-30T00:15:48;9.52;;;6.35;;
34373;SDS011;20637;55.770;37.592;2024-01-30T00:18:13;9.55;;;6.70;;
34373;SDS011;20637;55.770;37.592;2024-01-30T00:20:39;8.98;;;5.82;;
34373;SDS011;20637;55.770;37.592;2024-01-30T00:23:06;8.85;;;6.60;;
34373;SDS011;20637;55.770;37.592;2024-01-30T00:25:31;7.32;;;5.28;;
34373;SDS011;20637;55.770;37.592;2024-01-30T00:27:58;9.90;;;6.65;;
34373;SDS011;20637;55.770;37.592;2024-01-30T00:30:24;9.60;;;6.22;;
34373;SDS011;20637;55.770;37.592;2024-01-30T00:32:50;9.30;;;7.20;;
34373;SDS011;20637;55.770;37.592;2024-01-30T00:35:16;10.05;;;6.60;;
34373;SDS011;20637;55.770;37.592;2024-01-30T00:37:41;8.45;;;5.60;;
34373;SDS011;20637;55.770;37.592;2024-01-30T00:40:07;9.70;;;6.20;;
34373;SDS011;20637;55.770;37.592;2024-01-30T00:42:35;8.98;;;5.95;;
34373;SDS011;20637;55.770;37.592;2024-01-30T00:45:01;8.35;;;5.72;;
34373;SDS011;20637;55.770;37.592;2024-01-30T00:47:29;9.65;;;6.55;;
34373;SDS011;20637;55.770;37.592;2024-01-30T00:49:55;8.23;;;5.97;;
34373;SDS011;20637;55.770;37.592;2024-01-30T00:52:21;7.80;;;6.10;;
34373;SDS011;20637;55.770;37.592;2024-01-30T00:54:46;10.68;;;6.50;;
34373;SDS011;20637;55.770;37.592;2024-01-30T00:57:12;7.82;;;6.00;;
34373;SDS011;20637;55.770;37.592;2024-01-30T00:59:38;9.63;;;6.63;;
34373;SDS011;20637;55.770;37.592;2024-01-30T01:02:03;8.90;;;6.68;;
34373;SDS011;20637;55.770;37.592;2024-01-30T01:04:29;9.27;;;7.47;;
34373;SDS011;20637;55.770;37.592;2024-01-30T01:06:55;8.25;;;5.63;;
34373;SDS011;20637;55.770;37.592;2024-01-30T01:09:20;8.98;;;6.18;;
34373;SDS011;20637;55.770;37.592;2024-01-30T01:11:46;8.65;;;6.00;;
34373;SDS011;20637;55.770;37.592;2024-01-30T01:14:12;9.15;;;6.32;;
34373;SDS011;20637;55.770;37.592;2024-01-30T01:16:37;9.00;;;6.30;;
34373;SDS011;20637;55.770;37.592;2024-01-30T01:19:03;9.30;;;6.00;;
34373;SDS011;20637;55.770;37.592;2024-01-30T01:21:29;9.07;;;6.05;;
34373;SDS011;20637;55.770;37.592;2024-01-30T01:23:54;9.35;;;6.32;;
34373;SDS011;20637;55.770;37.592;2024-01-30T01:26:20;9.65;;;6.47;;
34373;SDS011;20637;55.770;37.592;2024-01-30T01:28:46;9.02;;;6.85;;
34373;SDS011;20637;55.770;37.592;2024-01-30T01:31:12;7.10;;;5.80;;
34373;SDS011;20637;55.770;37.592;2024-01-30T01:33:37;9.20;;;6.97;;
34373;SDS011;20637;55.770;37.592;2024-01-30T01:36:03;7.72;;;6.07;;
34373;SDS011;20637;55.770;37.592;2024-01-30T01:38:29;8.35;;;6.22;;
34373;SDS011;20637;55.770;37.592;2024-01-30T01:40:55;8.95;;;6.18;;
34373;SDS011;20637;55.770;37.592;2024-01-30T01:43:21;9.60;;;6.07;;
34373;SDS011;20637;55.770;37.592;2024-01-30T01:45:46;9.23;;;6.38;;
34373;SDS011;20637;55.770;37.592;2024-01-30T01:48:12;8.70;;;5.93;;
34373;SDS011;20637;55.770;37.592;2024-01-30T01:50:38;10.35;;;6.82;;
34373;SDS011;20637;55.770;37.592;2024-01-30T01:53:07;9.65;;;6.68;;
34373;SDS011;20637;55.770;37.592;2024-01-30T01:55:33;8.30;;;5.93;;
34373;SDS011;20637;55.770;37.592;2024-01-30T01:58:00;11.15;;;7.63;;
34373;SDS011;20637;55.770;37.592;2024-01-30T02:00:27;10.13;;;6.93;;
34373;SDS011;20637;55.770;37.592;2024-01-30T02:02:53;8.65;;;6.55;;
34373;SDS011;20637;55.770;37.592;2024-01-30T02:05:20;8.57;;;6.05;;
34373;SDS011;20637;55.770;37.592;2024-01-30T02:07:47;8.48;;;6.45;;
34373;SDS011;20637;55.770;37.592;2024-01-30T02:10:13;9.75;;;7.03;;
34373;SDS011;20637;55.770;37.592;2024-01-30T02:12:39;9.02;;;6.03;;
34373;SDS011;20637;55.770;37.592;2024-01-30T02:15:05;10.00;;;6.80;;
34373;SDS011;20637;55.770;37.592;2024-01-30T02:17:38;8.85;;;6.45;;
34373;SDS011;20637;55.770;37.592;2024-01-30T02:20:04;10.18;;;6.38;;
34373;SDS011;20637;55.770;37.592;2024-01-30T02:22:31;9.38;;;6.80;;
34373;SDS011;20637;55.770;37.592;2024-01-30T02:25:00;10.35;;;6.30;;
34373;SDS011;20637;55.770;37.592;2024-01-30T02:27:25;10.02;;;6.45;;
34373;SDS011;20637;55.770;37.592;2024-01-30T02:29:51;9.80;;;5.68;;
34373;SDS011;20637;55.770;37.592;2024-01-30T02:32:17;10.07;;;6.53;;
34373;SDS011;20637;55.770;37.592;2024-01-30T02:34:43;10.02;;;6.55;;
34373;SDS011;20637;55.770;37.592;2024-01-30T02:37:08;9.50;;;6.32;;
34373;SDS011;20637;55.770;37.592;2024-01-30T02:39:34;11.07;;;7.43;;
34373;SDS011;20637;55.770;37.592;2024-01-30T02:42:00;11.93;;;6.65;;
34373;SDS011;20637;55.770;37.592;2024-01-30T02:44:25;10.07;;;6.88;;
34373;SDS011;20637;55.770;37.592;2024-01-30T02:46:51;9.55;;;6.80;;
34373;SDS011;20637;55.770;37.592;2024-01-30T02:49:19;9.95;;;7.20;;
34373;SDS011;20637;55.770;37.592;2024-01-30T02:51:45;9.48;;;6.82;;
34373;SDS011;20637;55.770;37.592;2024-01-30T02:54:11;10.93;;;6.45;;
34373;SDS011;20637;55.770;37.592;2024-01-30T02:56:36;11.65;;;7.03;;
34373;SDS011;20637;55.770;37.592;2024-01-30T02:59:02;9.38;;;6.50;;
34373;SDS011;20637;55.770;37.592;2024-01-30T03:01:27;10.93;;;7.13;;
34373;SDS011;20637;55.770;37.592;2024-01-30T03:03:53;9.10;;;5.85;;
34373;SDS011;20637;55.770;37.592;2024-01-30T03:06:19;8.40;;;6.05;;
34373;SDS011;20637;55.770;37.592;2024-01-30T03:08:45;9.10;;;6.28;;
34373;SDS011;20637;55.770;37.592;2024-01-30T03:11:11;10.38;;;6.25;;
34373;SDS011;20637;55.770;37.592;2024-01-30T03:13:36;10.05;;;6.90;;
34373;SDS011;20637;55.770;37.592;2024-01-30T03:16:02;10.07;;;6.72;;
34373;SDS011;20637;55.770;37.592;2024-01-30T03:18:28;9.48;;;6.30;;
34373;SDS011;20637;55.770;37.592;2024-01-30T03:20:53;10.65;;;7.07;;
34373;SDS011;20637;55.770;37.592;2024-01-30T03:23:19;10.18;;;6.85;;
34373;SDS011;20637;55.770;37.592;2024-01-30T03:25:45;10.63;;;6.57;;
34373;SDS011;20637;55.770;37.592;2024-01-30T03:28:11;11.25;;;7.43;;
34373;SDS011;20637;55.770;37.592;2024-01-30T03:30:36;10.05;;;6.30;;
34373;SDS011;20637;55.770;37.592;2024-01-30T03:33:02;11.70;;;6.82;;
34373;SDS011;20637;55.770;37.592;2024-01-30T03:35:28;10.70;;;6.93;;
34373;SDS011;20637;55.770;37.592;2024-01-30T03:37:53;10.02;;;7.07;;
34373;SDS011;20637;55.770;37.592;2024-01-30T03:40:19;9.30;;;6.80;;
34373;SDS011;20637;55.770;37.592;2024-01-30T03:42:45;8.68;;;6.10;;
34373;SDS011;20637;55.770;37.592;2024-01-30T03:45:10;8.32;;;6.22;;
34373;SDS011;20637;55.770;37.592;2024-01-30T03:47:36;10.75;;;6.75;;
34373;SDS011;20637;55.770;37.592;2024-01-30T03:50:02;9.38;;;6.30;;
34373;SDS011;20637;55.770;37.592;2024-01-30T03:52:30;9.65;;;6.15;;
34373;SDS011;20637;55.770;37.592;2024-01-30T03:54:56;9.75;;;7.05;;
34373;SDS011;20637;55.770;37.592;2024-01-30T03:57:21;9.75;;;6.78;;
34373;SDS011;20637;55.770;37.592;2024-01-30T03:59:47;10.05;;;6.68;;
34373;SDS011;20637;55.770;37.592;2024-01-30T04:02:13;9.95;;;6.35;;
34373;SDS011;20637;55.770;37.592;2024-01-30T04:04:38;11.10;;;7.30;;
34373;SDS011;20637;55.770;37.592;2024-01-30T04:07:04;10.48;;;6.75;;
34373;SDS011;20637;55.770;37.592;2024-01-30T04:09:30;10.50;;;7.72;;
34373;SDS011;20637;55.770;37.592;2024-01-30T04:11:55;9.20;;;5.55;;
34373;SDS011;20637;55.770;37.592;2024-01-30T04:14:21;10.13;;;6.97;;
34373;SDS011;20637;55.770;37.592;2024-01-30T04:16:47;9.32;;;6.40;;
34373;SDS011;20637;55.770;37.592;2024-01-30T04:19:12;9.05;;;6.63;;
34373;SDS011;20637;55.770;37.592;2024-01-30T04:21:38;8.90;;;7.00;;
34373;SDS011;20637;55.770;37.592;2024-01-30T04:24:04;9.00;;;6.72;;
34373;SDS011;20637;55.770;37.592;2024-01-30T04:26:30;9.52;;;6.78;;
34373;SDS011;20637;55.770;37.592;2024-01-30T04:28:55;9.85;;;7.00;;
34373;SDS011;20637;55.770;37.592;2024-01-30T04:31:21;9.77;;;7.07;;
34373;SDS011;20637;55.770;37.592;2024-01-30T04:33:47;9.75;;;7.35;;
34373;SDS011;20637;55.770;37.592;2024-01-30T04:36:12;10.48;;;6.65;;
34373;SDS011;20637;55.770;37.592;2024-01-30T04:38:38;9.35;;;6.22;;
34373;SDS011;20637;55.770;37.592;2024-01-30T04:41:04;8.35;;;6.40;;
34373;SDS011;20637;55.770;37.592;2024-01-30T04:43:30;11.27;;;7.05;;
34373;SDS011;20637;55.770;37.592;2024-01-30T04:45:56;10.07;;;6.95;;
34373;SDS011;20637;55.770;37.592;2024-01-30T04:48:21;11.20;;;7.05;;
34373;SDS011;20637;55.770;37.592;2024-01-30T04:50:47;11.20;;;7.30;;
34373;SDS011;20637;55.770;37.592;2024-01-30T04:53:13;10.07;;;7.35;;
34373;SDS011;20637;55.770;37.592;2024-01-30T04:55:38;10.10;;;6.93;;
34373;SDS011;20637;55.770;37.592;2024-01-30T04:58:04;9.68;;;7.10;;
34373;SDS011;20637;55.770;37.592;2024-01-30T05:00:30;11.65;;;8.30;;
34373;SDS011;20637;55.770;37.592;2024-01-30T05:02:55;9.90;;;7.03;;
34373;SDS011;20637;55.770;37.592;2024-01-30T05:05:21;11.35;;;6.55;;
34373;SDS011;20637;55.770;37.592;2024-01-30T05:07:47;10.48;;;7.38;;
34373;SDS011;20637;55.770;37.592;2024-01-30T05:10:13;12.35;;;7.10;;
34373;SDS011;20637;55.770;37.592;2024-01-30T05:12:39;11.48;;;7.38;;
34373;SDS011;20637;55.770;37.592;2024-01-30T05:15:05;8.80;;;6.47;;
34373;SDS011;20637;55.770;37.592;2024-01-30T05:17:31;14.00;;;8.15;;
34373;SDS011;20637;55.770;37.592;2024-01-30T05:19:57;11.32;;;8.13;;
34373;SDS011;20637;55.770;37.592;2024-01-30T05:22:23;10.90;;;7.95;;
34373;SDS011;20637;55.770;37.592;2024-01-30T05:24:48;13.35;;;8.50;;
34373;SDS011;20637;55.770;37.592;2024-01-30T05:27:14;12.50;;;7.25;;
34373;SDS011;20637;55.770;37.592;2024-01-30T05:29:40;11.45;;;7.97;;
34373;SDS011;20637;55.770;37.592;2024-01-30T05:32:06;12.75;;;8.77;;
34373;SDS011;20637;55.770;37.592;2024-01-30T05:34:32;11.98;;;7.95;;
34373;SDS011;20637;55.770;37.592;2024-01-30T05:36:58;10.98;;;7.78;;
34373;SDS011;20637;55.770;37.592;2024-01-30T05:39:24;14.00;;;8.30;;
34373;SDS011;20637;55.770;37.592;2024-01-30T05:41:49;11.20;;;8.02;;
34373;SDS011;20637;55.770;37.592;2024-01-30T05:44:15;13.88;;;7.93;;
34373;SDS011;20637;55.770;37.592;2024-01-30T05:46:41;13.65;;;8.45;;
34373;SDS011;20637;55.770;37.592;2024-01-30T05:49:07;13.07;;;8.07;;
34373;SDS011;20637;55.770;37.592;2024-01-30T05:51:32;13.27;;;7.43;;
34373;SDS011;20637;55.770;37.592;2024-01-30T05:53:58;12.25;;;7.90;;
34373;SDS011;20637;55.770;37.592;2024-01-30T05:56:24;13.63;;;8.90;;
34373;SDS011;20637;55.770;37.592;2024-01-30T05:58:49;15.32;;;8.38;;
34373;SDS011;20637;55.770;37.592;2024-01-30T06:01:16;15.25;;;8.75;;
34373;SDS011;20637;55.770;37.592;2024-01-30T06:03:41;14.50;;;8.95;;
34373;SDS011;20637;55.770;37.592;2024-01-30T06:06:08;16.45;;;9.35;;
34373;SDS011;20637;55.770;37.592;2024-01-30T06:08:34;13.30;;;8.38;;
34373;SDS011;20637;55.770;37.592;2024-01-30T06:11:00;10.80;;;8.20;;
34373;SDS011;20637;55.770;37.592;2024-01-30T06:13:26;12.55;;;8.35;;
34373;SDS011;20637;55.770;37.592;2024-01-30T06:15:52;12.65;;;7.68;;
34373;SDS011;20637;55.770;37.592;2024-01-30T06:18:18;14.38;;;9.20;;
34373;SDS011;20637;55.770;37.592;2024-01-30T06:20:43;13.02;;;8.23;;
34373;SDS011;20637;55.770;37.592;2024-01-30T06:23:09;13.82;;;8.80;;
34373;SDS011;20637;55.770;37.592;2024-01-30T06:25:35;13.75;;;8.80;;
34373;SDS011;20637;55.770;37.592;2024-01-30T06:28:01;13.52;;;8.65;;
34373;SDS011;20637;55.770;37.592;2024-01-30T06:30:26;14.30;;;8.52;;
34373;SDS011;20637;55.770;37.592;2024-01-30T06:32:52;13.43;;;9.02;;
34373;SDS011;20637;55.770;37.592;2024-01-30T06:35:17;13.35;;;9.50;;
34373;SDS011;20637;55.770;37.592;2024-01-30T06:37:43;14.65;;;8.98;;
34373;SDS011;20637;55.770;37.592;2024-01-30T06:40:09;13.90;;;8.70;;
34373;SDS011;20637;55.770;37.592;2024-01-30T06:42:35;15.38;;;8.57;;
34373;SDS011;20637;55.770;37.592;2024-01-30T06:45:01;13.02;;;8.27;;
34373;SDS011;20637;55.770;37.592;2024-01-30T06:47:29;15.70;;;9.40;;
34373;SDS011;20637;55.770;37.592;2024-01-30T06:49:56;13.40;;;8.73;;
34373;SDS011;20637;55.770;37.592;2024-01-30T06:52:21;14.73;;;9.48;;
34373;SDS011;20637;55.770;37.592;2024-01-30T06:54:47;15.73;;;8.98;;
34373;SDS011;20637;55.770;37.592;2024-01-30T06:57:13;15.90;;;9.00;;
34373;SDS011;20637;55.770;37.592;2024-01-30T06:59:39;15.88;;;9.75;;
34373;SDS011;20637;55.770;37.592;2024-01-30T07:02:09;16.52;;;9.38;;
34373;SDS011;20637;55.770;37.592;2024-01-30T07:04:35;14.05;;;8.95;;
34373;SDS011;20637;55.770;37.592;2024-01-30T07:07:03;13.70;;;8.77;;
34373;SDS011;20637;55.770;37.592;2024-01-30T07:09:30;15.80;;;9.70;;
34373;SDS011;20637;55.770;37.592;2024-01-30T07:11:56;16.42;;;9.45;;
34373;SDS011;20637;55.770;37.592;2024-01-30T07:14:23;12.88;;;8.48;;
34373;SDS011;20637;55.770;37.592;2024-01-30T07:16:49;15.23;;;9.07;;
34373;SDS011;20637;55.770;37.592;2024-01-30T07:19:15;14.70;;;9.43;;
34373;SDS011;20637;55.770;37.592;2024-01-30T07:21:41;16.27;;;9.60;;
34373;SDS011;20637;55.770;37.592;2024-01-30T07:24:07;14.35;;;8.85;;
34373;SDS011;20637;55.770;37.592;2024-01-30T07:26:33;13.40;;;9.20;;
34373;SDS011;20637;55.770;37.592;2024-01-30T07:28:59;14.38;;;9.57;;
34373;SDS011;20637;55.770;37.592;2024-01-30T07:31:24;14.00;;;9.07;;
34373;SDS011;20637;55.770;37.592;2024-01-30T07:33:50;16.27;;;9.27;;
34373;SDS011;20637;55.770;37.592;2024-01-30T07:36:15;20.38;;;10.07;;
34373;SDS011;20637;55.770;37.592;2024-01-30T07:38:41;14.93;;;10.10;;
34373;SDS011;20637;55.770;37.592;2024-01-30T07:41:07;14.02;;;9.32;;
34373;SDS011;20637;55.770;37.592;2024-01-30T07:43:33;14.80;;;9.13;;
34373;SDS011;20637;55.770;37.592;2024-01-30T07:45:59;17.45;;;8.82;;
34373;SDS011;20637;55.770;37.592;2024-01-30T07:48:27;16.85;;;10.30;;
34373;SDS011;20637;55.770;37.592;2024-01-30T07:50:52;15.43;;;10.35;;
34373;SDS011;20637;55.770;37.592;2024-01-30T07:53:18;15.52;;;9.15;;
34373;SDS011;20637;55.770;37.592;2024-01-30T07:55:44;15.18;;;9.90;;
34373;SDS011;20637;55.770;37.592;2024-01-30T07:58:12;13.65;;;9.15;;
34373;SDS011;20637;55.770;37.592;2024-01-30T08:00:37;13.25;;;9.70;;
34373;SDS011;20637;55.770;37.592;2024-01-30T08:03:03;14.52;;;8.95;;
34373;SDS011;20637;55.770;37.592;2024-01-30T08:05:30;14.70;;;9.25;;
34373;SDS011;20637;55.770;37.592;2024-01-30T08:07:55;13.68;;;9.57;;
34373;SDS011;20637;55.770;37.592;2024-01-30T08:10:21;15.57;;;9.60;;
34373;SDS011;20637;55.770;37.592;2024-01-30T08:12:47;14.68;;;9.15;;
34373;SDS011;20637;55.770;37.592;2024-01-30T08:15:12;15.80;;;9.95;;
34373;SDS011;20637;55.770;37.592;2024-01-30T08:17:38;14.82;;;9.98;;
34373;SDS011;20637;55.770;37.592;2024-01-30T08:20:04;21.55;;;10.02;;
34373;SDS011;20637;55.770;37.592;2024-01-30T08:22:32;14.35;;;9.55;;
34373;SDS011;20637;55.770;37.592;2024-01-30T08:24:58;19.35;;;9.82;;
34373;SDS011;20637;55.770;37.592;2024-01-30T08:27:23;15.13;;;10.18;;
34373;SDS011;20637;55.770;37.592;2024-01-30T08:29:49;13.85;;;9.00;;
34373;SDS011;20637;55.770;37.592;2024-01-30T08:32:15;13.70;;;9.43;;
34373;SDS011;20637;55.770;37.592;2024-01-30T08:34:41;13.55;;;10.13;;
34373;SDS011;20637;55.770;37.592;2024-01-30T08:37:07;14.18;;;9.30;;
34373;SDS011;20637;55.770;37.592;2024-01-30T08:39:33;14.60;;;9.15;;
34373;SDS011;20637;55.770;37.592;2024-01-30T08:41:58;16.63;;;9.57;;
34373;SDS011;20637;55.770;37.592;2024-01-30T08:44:24;15.45;;;10.05;;
34373;SDS011;20637;55.770;37.592;2024-01-30T08:46:50;16.20;;;9.75;;
34373;SDS011;20637;55.770;37.592;2024-01-30T08:49:16;15.02;;;9.50;;
34373;SDS011;20637;55.770;37.592;2024-01-30T08:51:42;15.10;;;9.18;;
34373;SDS011;20637;55.770;37.592;2024-01-30T08:54:07;14.10;;;9.40;;
34373;SDS011;20637;55.770;37.592;2024-01-30T08:56:33;16.23;;;9.82;;
34373;SDS011;20637;55.770;37.592;2024-01-30T08:58:59;13.45;;;9.40;;
34373;SDS011;20637;55.770;37.592;2024-01-30T09:01:25;16.08;;;9.25;;
34373;SDS011;20637;55.770;37.592;2024-01-30T09:03:50;14.13;;;9.50;;
34373;SDS011;20637;55.770;37.592;2024-01-30T09:06:16;17.10;;;9.68;;
34373;SDS011;20637;55.770;37.592;2024-01-30T09:08:42;17.65;;;9.63;;
34373;SDS011;20637;55.770;37.592;2024-01-30T09:11:08;16.08;;;9.15;;
34373;SDS011;20637;55.770;37.592;2024-01-30T09:13:37;14.68;;;9.55;;
34373;SDS011;20637;55.770;37.592;2024-01-30T09:16:03;14.95;;;9.73;;
34373;SDS011;20637;55.770;37.592;2024-01-30T09:18:30;13.23;;;9.07;;
34373;SDS011;20637;55.770;37.592;2024-01-30T09:20:56;15.75;;;9.55;;
34373;SDS011;20637;55.770;37.592;2024-01-30T09:23:22;16.17;;;9.65;;
34373;SDS011;20637;55.770;37.592;2024-01-30T09:25:47;14.02;;;9.43;;
34373;SDS011;20637;55.770;37.592;2024-01-30T09:28:13;18.70;;;9.43;;
34373;SDS011;20637;55.770;37.592;2024-01-30T09:30:39;16.77;;;10.15;;
34373;SDS011;20637;55.770;37.592;2024-01-30T09:33:05;15.73;;;9.18;;
34373;SDS011;20637;55.770;37.592;2024-01-30T09:35:32;14.68;;;9.48;;
34373;SDS011;20637;55.770;37.592;2024-01-30T09:37:58;15.75;;;10.52;;
34373;SDS011;20637;55.770;37.592;2024-01-30T09:40:25;15.68;;;9.07;;
34373;SDS011;20637;55.770;37.592;2024-01-30T09:42:51;14.43;;;9.52;;
34373;SDS011;20637;55.770;37.592;2024-01-30T09:45:17;15.27;;;9.40;;
34373;SDS011;20637;55.770;37.592;2024-01-30T09:47:44;16.13;;;9.98;;
34373;SDS011;20637;55.770;37.592;2024-01-30T09:50:11;16.02;;;9.85;;
34373;SDS011;20637;55.770;37.592;2024-01-30T09:52:38;14.65;;;9.77;;
34373;SDS011;20637;55.770;37.592;2024-01-30T09:55:04;15.05;;;9.90;;
34373;SDS011;20637;55.770;37.592;2024-01-30T09:57:31;15.98;;;10.60;;
34373;SDS011;20637;55.770;37.592;2024-01-30T09:59:57;17.20;;;10.70;;
34373;SDS011;20637;55.770;37.592;2024-01-30T10:02:23;16.17;;;10.13;;
34373;SDS011;20637;55.770;37.592;2024-01-30T10:04:50;15.73;;;10.68;;
34373;SDS011;20637;55.770;37.592;2024-01-30T10:07:17;14.93;;;10.02;;
34373;SDS011;20637;55.770;37.592;2024-01-30T10:09:44;19.05;;;10.52;;
34373;SDS011;20637;55.770;37.592;2024-01-30T10:12:11;17.75;;;10.30;;
34373;SDS011;20637;55.770;37.592;2024-01-30T10:14:37;19.33;;;11.18;;
34373;SDS011;20637;55.770;37.592;2024-01-30T10:17:07;16.38;;;10.10;;
34373;SDS011;20637;55.770;37.592;2024-01-30T10:19:40;15.63;;;10.88;;
34373;SDS011;20637;55.770;37.592;2024-01-30T10:22:06;17.50;;;11.23;;
34373;SDS011;20637;55.770;37.592;2024-01-30T10:24:35;16.50;;;10.90;;
34373;SDS011;20637;55.770;37.592;2024-01-30T10:27:01;15.55;;;9.63;;
34373;SDS011;20637;55.770;37.592;2024-01-30T10:29:27;16.88;;;10.65;;
34373;SDS011;20637;55.770;37.592;2024-01-30T10:32:02;16.95;;;11.00;;
34373;SDS011;20637;55.770;37.592;2024-01-30T10:34:30;15.55;;;10.65;;
34373;SDS011;20637;55.770;37.592;2024-01-30T10:39:40;17.75;;;10.63;;
34373;SDS011;20637;55.770;37.592;2024-01-30T10:42:13;15.52;;;10.05;;
34373;SDS011;20637;55.770;37.592;2024-01-30T10:47:40;17.08;;;10.65;;
34373;SDS011;20637;55.770;37.592;2024-01-30T10:50:08;14.07;;;9.45;;
34373;SDS011;20637;55.770;37.592;2024-01-30T10:52:36;15.52;;;9.93;;
34373;SDS011;20637;55.770;37.592;2024-01-30T10:55:02;18.70;;;10.88;;
34373;SDS011;20637;55.770;37.592;2024-01-30T10:57:31;14.10;;;9.43;;
34373;SDS011;20637;55.770;37.592;2024-01-30T11:00:00;15.52;;;9.68;;
34373;SDS011;20637;55.770;37.592;2024-01-30T11:02:36;15.38;;;10.30;;
34373;SDS011;20637;55.770;37.592;2024-01-30T11:05:07;15.07;;;9.32;;
34373;SDS011;20637;55.770;37.592;2024-01-30T11:07:34;15.82;;;9.73;;
34373;SDS011;20637;55.770;37.592;2024-01-30T11:10:01;17.90;;;10.15;;
34373;SDS011;20637;55.770;37.592;2024-01-30T11:12:33;19.08;;;11.18;;
34373;SDS011;20637;55.770;37.592;2024-01-30T11:15:06;15.50;;;10.88;;
34373;SDS011;20637;55.770;37.592;2024-01-30T11:17:44;17.17;;;9.57;;
34373;SDS011;20637;55.770;37.592;2024-01-30T11:20:23;15.98;;;10.68;;
34373;SDS011;20637;55.770;37.592;2024-01-30T11:22:52;18.63;;;10.65;;
34373;SDS011;20637;55.770;37.592;2024-01-30T11:25:19;17.00;;;10.38;;
34373;SDS011;20637;55.770;37.592;2024-01-30T11:27:47;16.50;;;10.43;;
34373;SDS011;20637;55.770;37.592;2024-01-30T11:33:52;15.77;;;9.88;;
34373;SDS011;20637;55.770;37.592;2024-01-30T11:35:57;18.60;;;10.15;;
34373;SDS011;20637;55.770;37.592;2024-01-30T11:38:25;16.80;;;9.77;;
34373;SDS011;20637;55.770;37.592;2024-01-30T11:40:53;17.40;;;10.23;;
34373;SDS011;20637;55.770;37.592;2024-01-30T11:43:20;17.20;;;10.95;;
34373;SDS011;20637;55.770;37.592;2024-01-30T11:45:45;14.70;;;9.65;;
34373;SDS011;20637;55.770;37.592;2024-01-30T11:48:12;18.60;;;10.85;;
34373;SDS011;20637;55.770;37.592;2024-01-30T11:50:39;14.07;;;9.48;;
34373;SDS011;20637;55.770;37.592;2024-01-30T11:53:06;15.80;;;9.95;;
34373;SDS011;20637;55.770;37.592;2024-01-30T11:55:32;15.13;;;9.43;;
34373;SDS011;20637;55.770;37.592;2024-01-30T11:57:58;18.08;;;10.55;;
34373;SDS011;20637;55.770;37.592;2024-01-30T12:00:24;16.27;;;9.88;;
34373;SDS011;20637;55.770;37.592;2024-01-30T12:02:53;14.70;;;9.95;;
34373;SDS011;20637;55.770;37.592;2024-01-30T12:05:24;15.98;;;10.20;;
34373;SDS011;20637;55.770;37.592;2024-01-30T12:07:50;14.98;;;9.57;;
34373;SDS011;20637;55.770;37.592;2024-01-30T12:10:16;18.40;;;10.10;;
34373;SDS011;20637;55.770;37.592;2024-01-30T12:12:48;15.82;;;10.45;;
34373;SDS011;20637;55.770;37.592;2024-01-30T12:15:15;14.70;;;10.13;;
34373;SDS011;20637;55.770;37.592;2024-01-30T12:17:42;17.63;;;10.50;;
34373;SDS011;20637;55.770;37.592;2024-01-30T12:22:38;17.42;;;10.18;;
34373;SDS011;20637;55.770;37.592;2024-01-30T12:25:09;15.95;;;10.23;;
34373;SDS011;20637;55.770;37.592;2024-01-30T12:27:36;17.05;;;10.88;;
34373;SDS011;20637;55.770;37.592;2024-01-30T12:30:06;16.17;;;10.45;;
34373;SDS011;20637;55.770;37.592;2024-01-30T12:32:36;19.15;;;10.68;;
34373;SDS011;20637;55.770;37.592;2024-01-30T12:35:02;16.98;;;10.40;;
34373;SDS011;20637;55.770;37.592;2024-01-30T12:37:30;15.35;;;10.52;;
34373;SDS011;20637;55.770;37.592;2024-01-30T12:39:55;17.10;;;10.73;;
34373;SDS011;20637;55.770;37.592;2024-01-30T12:42:21;17.58;;;10.50;;
34373;SDS011;20637;55.770;37.592;2024-01-30T12:44:48;18.15;;;11.15;;
34373;SDS011;20637;55.770;37.592;2024-01-30T12:47:15;18.20;;;10.98;;
34373;SDS011;20637;55.770;37.592;2024-01-30T12:49:44;18.50;;;10.75;;
34373;SDS011;20637;55.770;37.592;2024-01-30T12:52:11;17.00;;;10.45;;
34373;SDS011;20637;55.770;37.592;2024-01-30T12:54:37;18.02;;;10.80;;
34373;SDS011;20637;55.770;37.592;2024-01-30T12:57:03;15.98;;;10.25;;
34373;SDS011;20637;55.770;37.592;2024-01-30T12:59:30;21.13;;;11.25;;
34373;SDS011;20637;55.770;37.592;2024-01-30T13:01:56;17.05;;;10.32;;
34373;SDS011;20637;55.770;37.592;2024-01-30T13:04:22;17.65;;;10.82;;
34373;SDS011;20637;55.770;37.592;2024-01-30T13:06:48;14.07;;;9.68;;
34373;SDS011;20637;55.770;37.592;2024-01-30T13:09:14;15.10;;;9.95;;
34373;SDS011;20637;55.770;37.592;2024-01-30T13:11:39;17.45;;;11.05;;
34373;SDS011;20637;55.770;37.592;2024-01-30T13:14:05;19.48;;;11.55;;
34373;SDS011;20637;55.770;37.592;2024-01-30T13:16:31;18.58;;;10.63;;
34373;SDS011;20637;55.770;37.592;2024-01-30T13:18:56;15.98;;;10.70;;
34373;SDS011;20637;55.770;37.592;2024-01-30T13:21:22;17.08;;;10.82;;
34373;SDS011;20637;55.770;37.592;2024-01-30T13:23:48;17.15;;;11.05;;
34373;SDS011;20637;55.770;37.592;2024-01-30T13:26:14;16.63;;;11.10;;
34373;SDS011;20637;55.770;37.592;2024-01-30T13:28:40;18.88;;;10.85;;
34373;SDS011;20637;55.770;37.592;2024-01-30T13:31:05;18.08;;;10.82;;
34373;SDS011;20637;55.770;37.592;2024-01-30T13:33:32;17.30;;;10.55;;
34373;SDS011;20637;55.770;37.592;2024-01-30T13:35:57;17.63;;;11.07;;
34373;SDS011;20637;55.770;37.592;2024-01-30T13:38:24;14.57;;;9.88;;
34373;SDS011;20637;55.770;37.592;2024-01-30T13:40:49;19.02;;;10.63;;
34373;SDS011;20637;55.770;37.592;2024-01-30T13:43:15;18.85;;;11.48;;
34373;SDS011;20637;55.770;37.592;2024-01-30T13:45:42;19.80;;;11.32;;
34373;SDS011;20637;55.770;37.592;2024-01-30T13:48:08;17.67;;;10.77;;
34373;SDS011;20637;55.770;37.592;2024-01-30T13:50:33;17.50;;;10.77;;
34373;SDS011;20637;55.770;37.592;2024-01-30T13:52:59;19.52;;;10.90;;
34373;SDS011;20637;55.770;37.592;2024-01-30T13:55:25;17.60;;;11.52;;
34373;SDS011;20637;55.770;37.592;2024-01-30T13:57:50;18.25;;;11.73;;
34373;SDS011;20637;55.770;37.592;2024-01-30T14:00:16;17.58;;;11.35;;
34373;SDS011;20637;55.770;37.592;2024-01-30T14:02:42;21.55;;;11.77;;
34373;SDS011;20637;55.770;37.592;2024-01-30T14:05:08;19.85;;;11.43;;
34373;SDS011;20637;55.770;37.592;2024-01-30T14:07:35;17.15;;;10.88;;
34373;SDS011;20637;55.770;37.592;2024-01-30T14:10:01;18.60;;;11.20;;
34373;SDS011;20637;55.770;37.592;2024-01-30T14:12:29;19.13;;;10.73;;
34373;SDS011;20637;55.770;37.592;2024-01-30T14:14:55;17.00;;;10.18;;
34373;SDS011;20637;55.770;37.592;2024-01-30T14:17:21;17.05;;;10.90;;
34373;SDS011;20637;55.770;37.592;2024-01-30T14:19:46;16.80;;;11.68;;
34373;SDS011;20637;55.770;37.592;2024-01-30T14:22:12;19.38;;;10.18;;
34373;SDS011;20637;55.770;37.592;2024-01-30T14:24:38;17.42;;;10.45;;
34373;SDS011;20637;55.770;37.592;2024-01-30T14:27:03;17.75;;;10.77;;